createdAt,value
2023-02-27T00:00:52.593Z,54.39
2023-02-27T00:03:19.521Z,54.75
2023-02-27T00:05:46.390Z,54.42
2023-02-27T00:08:13.184Z,54.38
2023-02-27T00:10:40.083Z,54.56
2023-02-27T00:13:07.343Z,53.37
2023-02-27T00:15:34.280Z,53.68
2023-02-27T00:18:01.304Z,53.00
2023-02-27T00:20:28.668Z,53.49
2023-02-27T00:22:55.426Z,52.98
2023-02-27T00:25:22.192Z,53.88
2023-02-27T00:27:50.048Z,53.17
2023-02-27T00:30:16.995Z,52.83
2023-02-27T00:32:44.193Z,53.64
2023-02-27T00:35:12.101Z,53.19
2023-02-27T00:37:39.950Z,53.46
2023-02-27T00:40:08.029Z,52.60
2023-02-27T00:42:35.148Z,53.11
2023-02-27T00:45:02.494Z,52.10
2023-02-27T00:47:31.502Z,50.77
2023-02-27T00:49:58.570Z,49.84
2023-02-27T00:52:25.938Z,50.16
2023-02-27T00:54:52.823Z,50.62
2023-02-27T00:57:19.974Z,50.68
2023-02-27T00:59:46.767Z,50.55
2023-02-27T01:02:13.624Z,49.41
2023-02-27T01:04:40.508Z,50.42
2023-02-27T01:07:08.220Z,51.43
2023-02-27T01:09:35.170Z,51.16
2023-02-27T01:12:01.975Z,51.29
2023-02-27T01:14:29.679Z,51.64
2023-02-27T01:16:58.162Z,50.98
2023-02-27T01:19:25.492Z,51.25
2023-02-27T01:21:52.422Z,51.92
2023-02-27T01:24:21.957Z,51.69
2023-02-27T01:26:49.222Z,52.24
2023-02-27T01:29:15.965Z,52.84
2023-02-27T01:31:42.969Z,52.22
2023-02-27T01:34:11.086Z,52.15
2023-02-27T01:36:38.123Z,51.66
2023-02-27T01:39:05.028Z,52.38
2023-02-27T01:41:32.966Z,52.78
2023-02-27T01:44:08.130Z,53.15
2023-02-27T01:46:37.725Z,53.38
2023-02-27T01:49:27.714Z,53.54
2023-02-27T01:52:01.977Z,53.43
2023-02-27T01:54:31.489Z,53.70
2023-02-27T01:56:58.640Z,54.17
2023-02-27T01:59:25.393Z,54.36
2023-02-27T02:01:52.329Z,55.04
2023-02-27T02:04:26.366Z,54.85
2023-02-27T02:07:11.436Z,56.19
2023-02-27T02:09:43.046Z,56.55
2023-02-27T02:12:12.259Z,58.36
2023-02-27T02:14:39.040Z,57.46
2023-02-27T02:17:40.316Z,61.66
2023-02-27T02:20:10.301Z,64.52
2023-02-27T02:22:49.174Z,67.83
2023-02-27T02:25:49.511Z,72.13
2023-02-27T02:28:55.960Z,73.57
2023-02-27T02:31:48.082Z,72.43
2023-02-27T02:34:42.316Z,71.73
2023-02-27T02:37:34.381Z,75.69
2023-02-27T02:40:16.610Z,74.90
2023-02-27T02:42:49.081Z,75.69
2023-02-27T02:45:36.738Z,77.97
2023-02-27T02:48:16.209Z,77.27
2023-02-27T02:50:54.877Z,78.55
2023-02-27T02:53:38.386Z,78.71
2023-02-27T02:56:25.510Z,77.59
2023-02-27T02:58:55.246Z,76.23
2023-02-27T03:01:31.111Z,68.69
2023-02-27T03:04:10.913Z,71.71
2023-02-27T03:06:43.880Z,67.22
2023-02-27T03:09:19.569Z,65.74
2023-02-27T03:11:49.203Z,66.33
2023-02-27T03:14:21.918Z,66.26
2023-02-27T03:16:51.675Z,73.46
2023-02-27T03:19:21.533Z,74.76
2023-02-27T03:22:05.445Z,76.03
2023-02-27T03:24:40.358Z,75.75
2023-02-27T03:27:09.117Z,76.21
2023-02-27T03:29:44.109Z,77.02
2023-02-27T03:32:32.929Z,76.82
2023-02-27T03:35:00.274Z,77.23
2023-02-27T03:37:53.034Z,77.61
2023-02-27T03:40:49.628Z,76.95
2023-02-27T03:43:40.595Z,75.09
2023-02-27T03:46:11.409Z,73.34
2023-02-27T03:48:44.711Z,72.23
2023-02-27T03:51:16.911Z,73.08
2023-02-27T03:54:22.414Z,71.71
2023-02-27T03:56:59.655Z,73.13
2023-02-27T03:59:26.709Z,73.01
2023-02-27T04:01:55.773Z,73.80
2023-02-27T04:04:23.427Z,73.89
2023-02-27T04:07:24.582Z,73.73
2023-02-27T04:10:00.357Z,73.99
2023-02-27T04:12:48.289Z,72.75
2023-02-27T04:15:20.944Z,72.92
2023-02-27T04:17:56.805Z,73.91
2023-02-27T04:20:49.967Z,76.21
2023-02-27T04:23:21.424Z,75.87
2023-02-27T04:26:01.556Z,74.93
2023-02-27T04:29:05.909Z,75.37
2023-02-27T04:31:47.354Z,74.82
2023-02-27T04:34:35.554Z,74.85
2023-02-27T04:37:11.611Z,73.96
2023-02-27T04:39:51.961Z,74.01
2023-02-27T04:42:21.826Z,73.62
2023-02-27T04:44:50.170Z,74.13
2023-02-27T04:47:18.024Z,74.79
2023-02-27T04:49:51.617Z,74.43
2023-02-27T04:52:45.675Z,73.49
2023-02-27T04:55:19.601Z,74.53
2023-02-27T04:58:10.834Z,73.64
2023-02-27T05:00:40.784Z,74.76
2023-02-27T05:03:13.069Z,75.24
2023-02-27T05:05:43.282Z,74.97
2023-02-27T05:08:18.583Z,76.18
2023-02-27T05:11:10.485Z,75.80
2023-02-27T05:13:45.545Z,76.84
2023-02-27T05:16:33.249Z,77.35
2023-02-27T05:19:01.669Z,76.79
2023-02-27T05:21:36.626Z,77.58
2023-02-27T05:24:14.021Z,77.71
2023-02-27T05:26:59.461Z,77.96
2023-02-27T05:29:53.044Z,77.64
2023-02-27T05:32:23.068Z,78.28
2023-02-27T05:34:57.872Z,78.58
2023-02-27T05:37:29.826Z,78.70
2023-02-27T05:39:57.393Z,77.63
2023-02-27T05:42:28.654Z,78.42
2023-02-27T05:45:00.988Z,77.25
2023-02-27T05:47:30.022Z,77.56
2023-02-27T05:50:02.293Z,76.68
2023-02-27T05:52:30.586Z,75.43
2023-02-27T05:55:22.630Z,76.26
2023-02-27T05:57:53.754Z,74.86
2023-02-27T06:00:20.543Z,74.85
2023-02-27T06:02:47.421Z,75.49
2023-02-27T06:05:15.794Z,75.86
2023-02-27T06:07:42.519Z,74.53
2023-02-27T06:10:12.971Z,75.84
2023-02-27T06:12:40.045Z,75.11
2023-02-27T06:15:07.259Z,74.95
2023-02-27T06:17:34.003Z,74.63
2023-02-27T06:20:00.827Z,74.13
2023-02-27T06:22:27.521Z,73.47
2023-02-27T06:24:54.513Z,73.15
2023-02-27T06:27:21.434Z,72.59
2023-02-27T06:29:48.136Z,72.52
2023-02-27T06:32:14.897Z,72.28
2023-02-27T06:34:41.752Z,70.34
2023-02-27T06:37:08.479Z,70.93
2023-02-27T06:39:35.270Z,71.13
2023-02-27T06:42:02.058Z,71.44
2023-02-27T06:44:29.585Z,70.16
2023-02-27T06:46:56.420Z,70.63
2023-02-27T06:49:23.272Z,69.41
2023-02-27T06:51:50.148Z,69.14
2023-02-27T06:54:16.838Z,70.04
2023-02-27T06:56:43.647Z,70.28
2023-02-27T06:59:10.592Z,69.24
2023-02-27T07:01:37.336Z,69.72
2023-02-27T07:04:04.218Z,69.40
2023-02-27T07:07:35.030Z,69.09
2023-02-27T07:09:17.888Z,69.44
2023-02-27T07:11:44.575Z,69.08
2023-02-27T07:14:12.488Z,69.27
2023-02-27T07:16:39.382Z,67.63
2023-02-27T07:19:08.480Z,68.83
2023-02-27T07:21:35.387Z,67.75
2023-02-27T07:24:04.767Z,68.56
2023-02-27T07:26:31.523Z,66.52
2023-02-27T07:28:58.318Z,67.49
2023-02-27T07:31:25.875Z,67.73
2023-02-27T07:33:53.319Z,66.06
2023-02-27T07:36:20.039Z,67.97
2023-02-27T07:38:46.917Z,69.76
2023-02-27T07:41:29.264Z,68.65
2023-02-27T07:43:59.366Z,69.38
2023-02-27T07:46:27.770Z,69.09
2023-02-27T07:48:55.030Z,69.07
2023-02-27T07:51:22.052Z,68.76
2023-02-27T07:53:48.858Z,67.84
2023-02-27T07:56:15.686Z,66.42
2023-02-27T07:58:42.389Z,67.50
2023-02-27T08:01:09.099Z,68.25
2023-02-27T08:03:35.773Z,66.38
2023-02-27T08:06:02.713Z,66.99
2023-02-27T08:08:29.801Z,67.46
2023-02-27T08:10:56.626Z,66.18
2023-02-27T08:13:42.230Z,66.74
2023-02-27T08:16:10.333Z,64.86
2023-02-27T08:18:37.047Z,65.17
2023-02-27T08:21:05.079Z,65.12
2023-02-27T08:23:34.583Z,67.38
2023-02-27T08:26:02.379Z,65.72
2023-02-27T08:28:29.284Z,65.29
2023-02-27T08:30:56.116Z,66.04
2023-02-27T08:33:23.751Z,64.92
2023-02-27T08:35:50.578Z,64.37
2023-02-27T08:38:17.352Z,65.33
2023-02-27T08:40:44.170Z,66.23
2023-02-27T08:43:10.911Z,64.36
2023-02-27T08:45:37.758Z,64.89
2023-02-27T08:48:04.732Z,65.85
2023-02-27T08:50:31.487Z,64.53
2023-02-27T08:52:58.214Z,64.29
2023-02-27T08:55:25.319Z,65.90
2023-02-27T08:57:51.997Z,66.07
2023-02-27T09:00:19.273Z,64.39
2023-02-27T09:02:46.296Z,65.29
2023-02-27T09:05:13.572Z,62.82
2023-02-27T09:07:40.399Z,63.63
2023-02-27T09:10:07.547Z,64.01
2023-02-27T09:12:34.371Z,63.87
2023-02-27T09:15:01.102Z,63.73
2023-02-27T09:17:27.979Z,64.81
2023-02-27T09:19:57.066Z,65.08
2023-02-27T09:22:24.430Z,64.08
2023-02-27T09:24:51.155Z,62.99
2023-02-27T09:27:17.925Z,62.97
2023-02-27T09:29:44.653Z,62.87
2023-02-27T09:32:12.480Z,61.31
2023-02-27T09:34:39.423Z,61.12
2023-02-27T09:37:06.158Z,61.66
2023-02-27T09:39:33.015Z,61.58
2023-02-27T09:42:05.923Z,61.75
2023-02-27T09:44:46.081Z,61.56
2023-02-27T09:47:20.589Z,61.94
2023-02-27T09:49:55.087Z,60.70
2023-02-27T09:52:21.977Z,61.31
2023-02-27T09:54:49.031Z,60.22
2023-02-27T09:57:20.097Z,58.70
2023-02-27T09:59:52.814Z,59.47
2023-02-27T10:02:39.169Z,58.44
2023-02-27T10:05:15.665Z,57.87
2023-02-27T10:08:01.544Z,58.14
2023-02-27T10:10:46.484Z,57.84
2023-02-27T10:13:31.570Z,56.76
2023-02-27T10:15:59.580Z,58.88
2023-02-27T10:18:35.895Z,59.21
2023-02-27T10:21:13.463Z,55.92
2023-02-27T10:23:49.279Z,57.14
2023-02-27T10:26:38.581Z,55.58
2023-02-27T10:29:19.095Z,53.78
2023-02-27T10:31:47.185Z,54.10
2023-02-27T10:34:16.471Z,53.22
2023-02-27T10:36:47.708Z,54.71
2023-02-27T10:39:16.888Z,51.24
2023-02-27T10:41:44.592Z,49.42
2023-02-27T10:44:15.213Z,48.78
2023-02-27T10:46:42.304Z,46.43
2023-02-27T10:49:21.403Z,45.64
2023-02-27T10:52:14.499Z,43.60
2023-02-27T10:54:42.199Z,43.44
2023-02-27T10:57:31.364Z,43.09
2023-02-27T11:00:00.399Z,42.05
2023-02-27T11:02:37.351Z,41.14
2023-02-27T11:05:07.287Z,39.46
2023-02-27T11:07:37.681Z,40.83
2023-02-27T11:10:04.451Z,40.13
2023-02-27T11:12:33.635Z,38.73
2023-02-27T11:15:25.828Z,38.42
2023-02-27T11:17:53.319Z,38.17
2023-02-27T11:20:36.221Z,37.98
2023-02-27T11:23:35.886Z,38.10
2023-02-27T11:26:21.470Z,38.83
2023-02-27T11:29:08.110Z,39.08
2023-02-27T11:31:39.266Z,38.71
2023-02-27T11:34:08.184Z,39.52
2023-02-27T11:36:42.750Z,38.96
2023-02-27T11:39:21.008Z,38.01
2023-02-27T11:41:48.244Z,38.22
2023-02-27T11:44:34.422Z,39.44
2023-02-27T11:47:09.505Z,40.25
2023-02-27T11:49:47.129Z,40.89
2023-02-27T11:52:46.913Z,40.91
2023-02-27T11:55:17.926Z,41.00
2023-02-27T11:57:47.329Z,41.77
2023-02-27T12:00:31.653Z,43.16
2023-02-27T12:02:58.393Z,42.16
2023-02-27T12:05:32.257Z,42.52
2023-02-27T12:08:25.176Z,42.58
2023-02-27T12:11:07.734Z,42.59
2023-02-27T12:13:41.968Z,42.01
2023-02-27T12:16:14.570Z,38.80
2023-02-27T12:18:45.378Z,40.95
2023-02-27T12:21:16.249Z,41.82
2023-02-27T12:23:49.005Z,42.23
2023-02-27T12:26:25.651Z,41.99
2023-02-27T12:29:28.982Z,43.32
2023-02-27T12:32:07.133Z,43.57
2023-02-27T12:34:53.294Z,42.25
2023-02-27T12:37:24.170Z,41.11
2023-02-27T12:39:52.813Z,39.70
2023-02-27T12:42:54.920Z,39.25
2023-02-27T12:45:27.593Z,38.83
2023-02-27T12:48:15.610Z,39.64
2023-02-27T12:50:45.093Z,40.51
2023-02-27T12:53:36.579Z,40.85
2023-02-27T12:56:14.361Z,40.05
2023-02-27T12:59:03.181Z,38.90
2023-02-27T13:01:48.989Z,39.00
2023-02-27T13:04:45.846Z,39.10
2023-02-27T13:07:22.274Z,39.59
2023-02-27T13:10:01.307Z,40.17
2023-02-27T13:12:43.244Z,40.96
2023-02-27T13:15:26.053Z,42.00
2023-02-27T13:18:04.758Z,42.04
2023-02-27T13:20:31.440Z,41.85
2023-02-27T13:23:15.617Z,42.13
2023-02-27T13:25:45.174Z,42.09
2023-02-27T13:28:18.263Z,42.53
2023-02-27T13:30:53.141Z,41.66
2023-02-27T13:33:42.010Z,42.00
2023-02-27T13:36:29.864Z,41.80
2023-02-27T13:38:56.955Z,44.75
2023-02-27T13:41:23.738Z,44.76
2023-02-27T13:43:57.810Z,41.97
2023-02-27T13:46:29.349Z,43.86
2023-02-27T13:48:56.078Z,42.92
2023-02-27T13:51:35.114Z,43.75
2023-02-27T13:54:14.221Z,43.57
2023-02-27T13:56:40.946Z,44.38
2023-02-27T13:59:32.930Z,45.62
2023-02-27T14:02:02.208Z,47.55
2023-02-27T14:04:31.526Z,47.60
2023-02-27T14:07:05.737Z,48.55
2023-02-27T14:09:37.803Z,49.72
2023-02-27T14:12:06.368Z,50.57
2023-02-27T14:14:46.496Z,51.55
2023-02-27T14:17:18.319Z,52.01
2023-02-27T14:19:48.752Z,52.65
2023-02-27T14:22:15.529Z,53.35
2023-02-27T14:25:02.493Z,53.71
2023-02-27T14:27:32.109Z,54.21
2023-02-27T14:30:02.244Z,55.55
2023-02-27T14:32:33.297Z,55.00
2023-02-27T14:35:00.627Z,55.50
2023-02-27T14:37:27.784Z,55.42
2023-02-27T14:39:55.585Z,55.96
2023-02-27T14:42:44.301Z,56.77
2023-02-27T14:45:19.681Z,57.23
2023-02-27T14:47:47.187Z,58.27
2023-02-27T14:50:37.336Z,58.60
2023-02-27T14:53:05.517Z,59.27
2023-02-27T14:55:36.819Z,59.97
2023-02-27T14:58:29.936Z,60.09
2023-02-27T15:01:06.795Z,61.41
2023-02-27T15:03:33.955Z,61.03
2023-02-27T15:06:02.959Z,61.86
2023-02-27T15:08:38.185Z,63.04
2023-02-27T15:11:06.463Z,63.90
2023-02-27T15:13:36.286Z,65.02
2023-02-27T15:16:28.417Z,65.67
2023-02-27T15:18:58.745Z,65.25
2023-02-27T15:21:27.486Z,65.78
2023-02-27T15:23:56.206Z,66.84
2023-02-27T15:26:23.166Z,67.31
2023-02-27T15:28:50.590Z,68.68
2023-02-27T15:31:27.081Z,68.47
2023-02-27T15:33:54.603Z,68.64
2023-02-27T15:36:27.351Z,68.70
2023-02-27T15:39:14.923Z,69.13
2023-02-27T15:41:46.412Z,69.19
2023-02-27T15:44:14.689Z,69.46
2023-02-27T15:46:41.844Z,69.54
2023-02-27T15:49:18.406Z,68.91
2023-02-27T15:52:07.352Z,69.15
2023-02-27T15:54:35.214Z,69.04
2023-02-27T15:57:04.447Z,68.23
2023-02-27T15:59:33.907Z,68.53
2023-02-27T16:02:04.145Z,68.01
2023-02-27T16:04:33.282Z,67.94
2023-02-27T16:07:06.132Z,68.69
2023-02-27T16:09:34.859Z,68.85
2023-02-27T16:12:27.547Z,68.82
2023-02-27T16:15:29.997Z,68.81
2023-02-27T16:18:08.721Z,69.59
2023-02-27T16:20:44.660Z,69.21
2023-02-27T16:23:24.751Z,69.23
2023-02-27T16:26:03.723Z,69.00
2023-02-27T16:28:32.909Z,69.64
2023-02-27T16:30:59.730Z,69.68
2023-02-27T16:33:28.214Z,69.39
2023-02-27T16:36:11.029Z,69.85
2023-02-27T16:38:37.828Z,69.76
2023-02-27T16:41:04.656Z,70.23
2023-02-27T16:43:33.519Z,69.85
2023-02-27T16:46:00.369Z,70.16
2023-02-27T16:48:27.219Z,70.47
2023-02-27T16:50:54.057Z,70.97
2023-02-27T16:53:20.764Z,71.02
2023-02-27T16:55:47.636Z,71.14
2023-02-27T16:58:18.968Z,71.44
2023-02-27T17:00:45.832Z,71.20
2023-02-27T17:03:13.409Z,71.16
2023-02-27T17:05:41.203Z,70.55
2023-02-27T17:08:08.791Z,71.22
2023-02-27T17:10:35.536Z,71.93
2023-02-27T17:13:02.353Z,72.57
2023-02-27T17:15:29.178Z,73.34
2023-02-27T17:17:55.973Z,73.33
2023-02-27T17:20:24.539Z,74.14
2023-02-27T17:22:51.254Z,74.10
2023-02-27T17:25:18.212Z,73.10
2023-02-27T17:27:45.147Z,73.70
2023-02-27T17:30:13.187Z,74.08
2023-02-27T17:32:40.164Z,74.85
2023-02-27T17:35:07.194Z,74.51
2023-02-27T17:37:34.415Z,74.52
2023-02-27T17:40:04.598Z,74.67
2023-02-27T17:42:32.137Z,74.77
2023-02-27T17:44:59.003Z,74.42
2023-02-27T17:47:25.767Z,74.06
2023-02-27T17:49:53.257Z,74.75
2023-02-27T17:52:20.346Z,75.06
2023-02-27T17:54:47.065Z,75.69
2023-02-27T17:57:13.763Z,75.64
2023-02-27T17:59:41.036Z,75.38
2023-02-27T18:02:10.992Z,75.54
2023-02-27T18:04:38.480Z,75.60
2023-02-27T18:07:05.595Z,75.16
2023-02-27T18:09:32.361Z,75.27
2023-02-27T18:11:59.357Z,75.37
2023-02-27T18:14:26.246Z,75.80
2023-02-27T18:16:53.007Z,75.96
2023-02-27T18:19:19.709Z,75.39
2023-02-27T18:21:47.301Z,74.95
2023-02-27T18:24:16.117Z,74.99
2023-02-27T18:26:42.906Z,74.39
2023-02-27T18:29:11.469Z,74.87
2023-02-27T18:31:41.353Z,74.43
2023-02-27T18:34:08.796Z,74.27
2023-02-27T18:36:35.760Z,74.14
2023-02-27T18:39:03.338Z,74.58
2023-02-27T18:41:30.244Z,75.60
2023-02-27T18:43:58.508Z,75.55
2023-02-27T18:46:25.858Z,74.78
2023-02-27T18:48:52.865Z,75.32
2023-02-27T18:51:20.002Z,74.95
2023-02-27T18:53:49.082Z,75.62
2023-02-27T18:56:18.207Z,77.12
2023-02-27T18:58:45.650Z,76.77
2023-02-27T19:01:27.423Z,76.53
2023-02-27T19:04:00.261Z,76.00
2023-02-27T19:06:28.236Z,76.82
2023-02-27T19:08:55.129Z,76.00
2023-02-27T19:11:23.846Z,76.72
2023-02-27T19:13:50.854Z,76.85
2023-02-27T19:16:17.897Z,77.70
2023-02-27T19:18:44.690Z,77.21
2023-02-27T19:21:11.466Z,77.87
2023-02-27T19:23:39.027Z,77.82
2023-02-27T19:26:06.050Z,77.53
2023-02-27T19:28:33.260Z,78.64
2023-02-27T19:31:00.047Z,78.24
2023-02-27T19:33:26.859Z,78.01
2023-02-27T19:35:53.745Z,77.46
2023-02-27T19:38:20.585Z,77.73
2023-02-27T19:40:47.317Z,78.29
2023-02-27T19:43:15.379Z,77.80
2023-02-27T19:45:42.183Z,76.67
2023-02-27T19:48:09.125Z,77.81
2023-02-27T19:50:36.172Z,77.46
2023-02-27T19:53:02.905Z,77.44
2023-02-27T19:55:29.814Z,76.53
2023-02-27T19:57:56.764Z,77.01
2023-02-27T20:00:23.762Z,76.59
2023-02-27T20:02:50.533Z,77.47
2023-02-27T20:05:17.401Z,78.38
2023-02-27T20:07:44.181Z,78.39
2023-02-27T20:10:11.690Z,77.94
2023-02-27T20:12:38.424Z,78.82
2023-02-27T20:15:09.986Z,77.52
2023-02-27T20:17:37.883Z,78.09
2023-02-27T20:20:06.186Z,77.75
2023-02-27T20:22:33.263Z,77.48
2023-02-27T20:25:00.252Z,78.18
2023-02-27T20:27:27.529Z,77.27
2023-02-27T20:29:55.947Z,76.69
2023-02-27T20:32:24.107Z,77.09
2023-02-27T20:34:51.715Z,76.70
2023-02-27T20:37:19.094Z,76.18
2023-02-27T20:39:45.811Z,76.47
2023-02-27T20:42:14.106Z,76.63
2023-02-27T20:44:41.905Z,76.65
2023-02-27T20:47:09.552Z,76.92
2023-02-27T20:49:36.736Z,76.42
2023-02-27T20:52:03.706Z,75.80
2023-02-27T20:54:30.557Z,75.19
2023-02-27T20:56:57.580Z,75.78
2023-02-27T20:59:26.285Z,75.51
2023-02-27T21:01:53.360Z,76.24
2023-02-27T21:04:43.258Z,76.59
2023-02-27T21:07:12.229Z,77.90
2023-02-27T21:09:39.027Z,77.77
2023-02-27T21:12:06.581Z,78.25
2023-02-27T21:14:33.462Z,78.62
2023-02-27T21:17:00.280Z,79.15
2023-02-27T21:19:26.949Z,79.82
2023-02-27T21:21:53.656Z,78.94
2023-02-27T21:24:20.853Z,79.69
2023-02-27T21:26:48.113Z,80.30
2023-02-27T21:29:17.351Z,80.43
2023-02-27T21:31:45.706Z,80.88
2023-02-27T21:34:15.002Z,79.89
2023-02-27T21:36:43.207Z,79.95
2023-02-27T21:39:39.247Z,79.53
2023-02-27T21:42:07.400Z,79.45
2023-02-27T21:44:34.234Z,80.10
2023-02-27T21:47:09.780Z,79.59
2023-02-27T21:49:37.322Z,79.68
2023-02-27T21:52:04.252Z,79.63
2023-02-27T21:54:31.089Z,80.40
2023-02-27T21:57:01.804Z,79.97
2023-02-27T21:59:29.840Z,80.98
2023-02-27T22:01:57.296Z,78.87
2023-02-27T22:04:24.288Z,79.80
2023-02-27T22:06:52.283Z,80.31
2023-02-27T22:09:19.774Z,80.71
2023-02-27T22:11:47.366Z,80.22
2023-02-27T22:14:14.639Z,81.47
2023-02-27T22:16:41.680Z,81.40
2023-02-27T22:19:10.926Z,80.90
2023-02-27T22:21:38.166Z,80.90
2023-02-27T22:24:05.583Z,81.02
2023-02-27T22:26:33.469Z,80.69
2023-02-27T22:29:00.191Z,80.83
2023-02-27T22:31:31.288Z,81.41
2023-02-27T22:34:14.021Z,81.75
2023-02-27T22:36:41.819Z,81.14
2023-02-27T22:39:08.720Z,81.25
2023-02-27T22:41:37.627Z,81.39
2023-02-27T22:44:04.907Z,81.49
2023-02-27T22:46:34.311Z,80.99
2023-02-27T22:49:07.489Z,81.19
2023-02-27T22:51:34.962Z,80.39
2023-02-27T22:54:03.212Z,80.32
2023-02-27T22:56:30.634Z,81.41
2023-02-27T22:58:57.603Z,80.69
2023-02-27T23:01:29.809Z,80.90
2023-02-27T23:03:59.308Z,80.57
2023-02-27T23:06:28.290Z,79.93
2023-02-27T23:08:55.146Z,80.99
2023-02-27T23:11:22.034Z,80.01
2023-02-27T23:13:48.895Z,80.13
2023-02-27T23:16:16.182Z,80.49
2023-02-27T23:18:56.977Z,79.91
2023-02-27T23:21:26.936Z,80.16
2023-02-27T23:23:53.972Z,81.24
2023-02-27T23:26:20.995Z,82.04
2023-02-27T23:28:47.653Z,81.92
2023-02-27T23:31:14.516Z,82.04
2023-02-27T23:33:41.380Z,80.98
2023-02-27T23:36:08.249Z,81.37
2023-02-27T23:38:34.985Z,81.67
2023-02-27T23:41:09.548Z,82.47
2023-02-27T23:43:36.653Z,82.41
2023-02-27T23:46:08.055Z,81.97
2023-02-27T23:48:35.379Z,82.47
2023-02-27T23:51:05.985Z,81.71
2023-02-27T23:53:33.815Z,81.17
2023-02-27T23:56:00.653Z,82.22
2023-02-27T23:58:27.609Z,81.60
